Time;durP1;ratioP1;P1;durP2;ratioP2;P2;SDS_P1;SDS_P2;PMS_P1;PMS_P2;Temp;Humidity;BMP_temperature;BMP_pressure;BME280_temperature;BME280_humidity;BME280_pressure;Samples;Min_cycle;Max_cycle;Signal;HPM_P1;HPM_P2
2022/05/23 00:00:51;;;;;;;2.30;1.63;;;24.60;50.10;;;;;;5091513;28;20386;-66
2022/05/23 00:03:21;;;;;;;3.30;1.90;;;24.60;50.10;;;;;;5092183;28;20396;-65
2022/05/23 00:05:47;;;;;;;3.22;1.75;;;24.60;50.10;;;;;;5090643;28;20378;-65
2022/05/23 00:08:13;;;;;;;2.30;1.67;;;24.60;50.10;;;;;;5091567;28;20753;-65
2022/05/23 00:10:39;;;;;;;3.53;1.80;;;24.60;50.10;;;;;;5091097;28;20386;-65
2022/05/23 00:13:06;;;;;;;2.27;1.57;;;24.60;50.10;;;;;;5091549;28;20414;-65
2022/05/23 00:15:32;;;;;;;1.95;1.75;;;24.60;50.10;;;;;;5091103;28;20400;-65
2022/05/23 00:17:57;;;;;;;2.10;1.70;;;24.60;50.10;;;;;;5091389;28;20402;-65
2022/05/23 00:20:25;;;;;;;1.98;1.73;;;24.60;50.10;;;;;;5090766;28;20374;-65
2022/05/23 00:22:51;;;;;;;2.80;1.70;;;24.60;50.10;;;;;;5091117;28;20402;-65
2022/05/23 00:25:18;;;;;;;2.50;1.80;;;24.60;50.20;;;;;;5092185;28;20389;-65
2022/05/23 00:27:46;;;;;;;2.20;1.60;;;24.60;50.20;;;;;;5091083;28;20397;-65
2022/05/23 00:30:16;;;;;;;3.40;1.80;;;24.60;50.20;;;;;;5091359;28;20407;-65
2022/05/23 00:35:25;;;;;;;3.47;2.13;;;24.60;50.20;;;;;;5091048;28;20411;-65
2022/05/23 00:37:54;;;;;;;2.72;1.77;;;24.50;50.20;;;;;;5089993;28;20790;-65
2022/05/23 00:43:13;;;;;;;2.30;1.88;;;24.50;50.20;;;;;;5091029;28;20382;-65
2022/05/23 00:43:41;;;;;;;1.95;1.60;;;24.50;50.20;;;;;;5090547;28;20386;-65
2022/05/23 00:46:07;;;;;;;2.50;1.83;;;24.50;50.20;;;;;;5091035;28;20460;-65
2022/05/23 00:48:33;;;;;;;1.88;1.63;;;24.50;50.20;;;;;;5089836;28;20394;-65
2022/05/23 00:51:09;;;;;;;2.90;1.85;;;24.50;50.20;;;;;;5091021;28;20393;-66
2022/05/23 00:53:44;;;;;;;2.80;1.80;;;24.50;50.20;;;;;;5089903;28;20738;-65
2022/05/23 00:56:12;;;;;;;2.10;1.90;;;24.50;50.20;;;;;;5089915;28;20430;-65
2022/05/23 00:58:43;;;;;;;2.20;1.65;;;24.50;50.30;;;;;;5090974;28;20890;-65
2022/05/23 01:01:12;;;;;;;2.30;1.80;;;24.50;50.20;;;;;;5089992;28;20416;-65
2022/05/23 01:03:38;;;;;;;2.22;1.60;;;24.50;50.20;;;;;;5090825;28;20862;-65
2022/05/23 01:06:05;;;;;;;2.83;2.00;;;24.50;50.20;;;;;;5090892;28;20799;-65
2022/05/23 01:08:32;;;;;;;2.17;1.70;;;24.50;50.30;;;;;;5090252;28;20434;-65
2022/05/23 01:10:58;;;;;;;2.13;1.67;;;24.50;50.20;;;;;;5090721;28;20862;-65
2022/05/23 01:13:24;;;;;;;2.70;1.73;;;24.50;50.30;;;;;;5091001;28;20404;-65
2022/05/23 01:15:50;;;;;;;2.35;1.77;;;24.50;50.30;;;;;;5090457;28;20847;-65
2022/05/23 01:18:16;;;;;;;2.13;1.93;;;24.50;50.30;;;;;;5090910;28;20410;-65
2022/05/23 01:20:45;;;;;;;2.85;2.00;;;24.50;50.30;;;;;;5090825;28;20873;-65
2022/05/23 01:23:29;;;;;;;2.33;1.70;;;24.50;50.30;;;;;;5091655;28;20904;-65
2022/05/23 01:25:56;;;;;;;2.50;1.77;;;24.50;50.30;;;;;;5094252;28;20383;-65
2022/05/23 01:28:21;;;;;;;1.70;1.60;;;24.40;50.30;;;;;;5094375;28;20386;-66
2022/05/23 01:30:48;;;;;;;2.40;1.73;;;24.40;50.30;;;;;;5094354;28;20731;-65
2022/05/23 01:33:14;;;;;;;2.95;1.90;;;24.50;50.30;;;;;;5092972;28;20492;-65
2022/05/23 01:35:40;;;;;;;2.10;1.77;;;24.50;50.40;;;;;;5093658;28;20390;-65
2022/05/23 01:38:07;;;;;;;3.15;2.08;;;24.40;50.30;;;;;;5093852;28;20448;-65
2022/05/23 01:40:33;;;;;;;2.80;2.00;;;24.40;50.30;;;;;;5093651;28;20390;-65
2022/05/23 01:43:00;;;;;;;2.55;2.03;;;24.50;50.40;;;;;;5092757;28;20401;-65
2022/05/23 01:45:29;;;;;;;2.45;1.90;;;24.40;50.30;;;;;;5094050;28;20393;-65
2022/05/23 01:47:56;;;;;;;2.30;1.85;;;24.40;50.30;;;;;;5093590;28;20477;-65
2022/05/23 01:50:23;;;;;;;2.80;2.10;;;24.40;50.30;;;;;;5093982;28;20427;-65
2022/05/23 01:52:50;;;;;;;2.50;1.70;;;24.40;50.40;;;;;;5093715;28;20406;-65
2022/05/23 01:55:16;;;;;;;2.35;1.77;;;24.40;50.40;;;;;;5093958;28;20425;-65
2022/05/23 01:57:42;;;;;;;2.38;1.98;;;24.40;50.40;;;;;;5093247;28;20394;-65
2022/05/23 02:03:03;;;;;;;3.13;1.90;;;24.40;50.40;;;;;;5069854;28;20941;-65
2022/05/23 02:05:30;;;;;;;2.80;2.00;;;24.40;50.40;;;;;;5093513;28;20491;-65
2022/05/23 02:07:56;;;;;;;2.30;1.80;;;24.40;50.40;;;;;;5093386;28;20374;-65
2022/05/23 02:10:23;;;;;;;2.37;1.73;;;24.40;50.50;;;;;;5093695;28;20775;-65
2022/05/23 02:12:49;;;;;;;2.22;1.73;;;24.40;50.50;;;;;;5093608;28;20412;-65
2022/05/23 02:15:16;;;;;;;2.43;1.90;;;24.40;50.50;;;;;;5093498;28;20751;-65
2022/05/23 02:17:42;;;;;;;2.50;1.70;;;24.40;50.50;;;;;;5092789;28;20505;-65
2022/05/23 02:20:09;;;;;;;2.60;1.70;;;24.40;50.50;;;;;;5093419;28;20382;-65
2022/05/23 02:22:35;;;;;;;2.65;1.88;;;24.40;50.50;;;;;;5093391;28;20445;-65
2022/05/23 02:25:01;;;;;;;2.10;1.80;;;24.30;50.40;;;;;;5092826;28;21396;-65
2022/05/23 02:27:29;;;;;;;2.20;2.00;;;24.40;50.50;;;;;;5092687;28;20378;-65
2022/05/23 02:29:55;;;;;;;2.45;1.90;;;24.40;50.50;;;;;;5092786;28;20401;-65
2022/05/23 02:32:20;;;;;;;3.08;1.88;;;24.30;50.50;;;;;;5093067;28;20480;-65
2022/05/23 02:34:46;;;;;;;2.70;1.90;;;24.40;50.60;;;;;;5092780;28;20386;-65
2022/05/23 02:37:11;;;;;;;2.33;1.90;;;24.30;50.50;;;;;;5092958;28;20402;-65
2022/05/23 02:39:37;;;;;;;2.33;2.08;;;24.30;50.50;;;;;;5092772;28;20393;-65
2022/05/23 02:42:04;;;;;;;3.17;2.00;;;24.30;50.60;;;;;;5093099;28;20386;-65
2022/05/23 02:44:29;;;;;;;2.28;1.75;;;24.30;50.60;;;;;;5092974;28;20912;-65
2022/05/23 02:46:55;;;;;;;2.10;1.80;;;24.30;50.60;;;;;;5092885;28;20374;-65
2022/05/23 02:49:21;;;;;;;2.10;1.77;;;24.30;50.60;;;;;;5092919;28;20397;-65
2022/05/23 02:51:47;;;;;;;2.20;1.90;;;24.30;50.60;;;;;;5091810;28;20480;-65
2022/05/23 02:54:13;;;;;;;2.30;1.70;;;24.30;50.60;;;;;;5092801;28;20382;-65
2022/05/23 02:56:39;;;;;;;2.23;1.80;;;24.30;50.60;;;;;;5092610;28;20382;-65
2022/05/23 02:59:05;;;;;;;2.50;1.80;;;24.30;50.60;;;;;;5092612;28;20758;-65
2022/05/23 03:01:31;;;;;;;2.83;2.00;;;24.30;50.60;;;;;;5090996;28;20394;-65
2022/05/23 03:03:56;;;;;;;2.07;1.63;;;24.30;50.60;;;;;;5092254;28;20389;-65
2022/05/23 03:06:22;;;;;;;4.05;1.95;;;24.30;50.70;;;;;;5092530;28;20991;-65
2022/05/23 03:08:48;;;;;;;2.92;1.80;;;24.30;51.10;;;;;;5092447;28;20394;-65
2022/05/23 03:11:14;;;;;;;4.97;2.10;;;24.30;51.00;;;;;;5091061;28;20980;-65
2022/05/23 03:13:39;;;;;;;8.02;5.13;;;24.30;51.90;;;;;;5091887;28;20435;-65
2022/05/23 03:16:11;;;;;;;7.37;2.90;;;24.30;54.00;;;;;;5092400;28;20523;-65
2022/05/23 03:18:37;;;;;;;9.40;3.25;;;24.30;53.20;;;;;;5092226;28;20417;-65
2022/05/23 03:21:07;;;;;;;6.30;2.73;;;24.40;54.70;;;;;;5092304;28;20385;-65
2022/05/23 03:29:07;;;;;;;6.22;2.25;;;24.50;55.10;;;;;;5091941;28;20393;-65
2022/05/23 03:31:33;;;;;;;6.50;2.30;;;24.50;54.80;;;;;;5091663;28;20859;-65
2022/05/23 03:33:59;;;;;;;5.50;2.30;;;24.50;55.00;;;;;;5090379;28;20398;-65
2022/05/23 03:36:25;;;;;;;5.13;2.25;;;24.60;55.20;;;;;;5090632;28;20398;-65
2022/05/23 03:38:50;;;;;;;3.97;2.33;;;24.60;55.00;;;;;;5091404;28;20418;-65
2022/05/23 03:41:16;;;;;;;6.60;2.47;;;24.60;54.90;;;;;;5091525;28;20379;-65
2022/05/23 03:43:42;;;;;;;7.63;2.30;;;24.60;55.50;;;;;;5091256;28;20746;-65
2022/05/23 03:46:10;;;;;;;5.20;2.20;;;24.60;53.90;;;;;;5091057;28;20724;-65
2022/05/23 03:48:37;;;;;;;5.70;2.45;;;24.60;55.30;;;;;;5091756;28;20927;-65
2022/05/23 03:51:04;;;;;;;5.15;2.20;;;24.60;55.30;;;;;;5091415;28;20461;-65
2022/05/23 03:53:30;;;;;;;4.25;2.40;;;24.60;55.20;;;;;;5091683;28;20398;-65
2022/05/23 03:55:57;;;;;;;4.73;2.10;;;24.60;54.70;;;;;;5089249;28;20464;-65
2022/05/23 03:58:24;;;;;;;5.88;1.83;;;24.60;54.80;;;;;;5091464;28;20418;-65
2022/05/23 04:00:50;;;;;;;3.58;2.03;;;24.70;54.60;;;;;;5091269;28;20410;-65
2022/05/23 04:03:19;;;;;;;6.82;2.42;;;24.70;54.50;;;;;;5091222;28;20425;-65
2022/05/23 04:05:46;;;;;;;5.07;2.13;;;24.70;54.40;;;;;;5090804;28;20387;-65
2022/05/23 04:08:12;;;;;;;6.63;2.00;;;24.60;54.10;;;;;;5091457;28;20397;-69
2022/05/23 04:10:39;;;;;;;5.60;2.50;;;24.60;54.10;;;;;;5091605;28;20461;-68
2022/05/23 04:13:06;;;;;;;5.88;2.42;;;24.50;53.30;;;;;;5091491;28;20388;-67
2022/05/23 04:15:32;;;;;;;5.10;2.50;;;24.50;52.70;;;;;;5090219;28;20445;-68
2022/05/23 04:17:58;;;;;;;6.85;2.72;;;24.50;52.60;;;;;;5090861;28;20393;-68
2022/05/23 04:20:24;;;;;;;6.47;2.72;;;24.50;52.90;;;;;;5091523;28;20896;-68
2022/05/23 04:22:50;;;;;;;8.45;3.17;;;24.40;52.50;;;;;;5091442;28;20417;-68
2022/05/23 04:25:16;;;;;;;7.97;3.00;;;24.40;52.80;;;;;;5091423;28;20394;-68
2022/05/23 04:27:42;;;;;;;6.00;2.80;;;24.40;52.70;;;;;;5091214;28;20374;-68
2022/05/23 04:30:09;;;;;;;6.03;2.87;;;24.40;52.60;;;;;;5089902;28;20394;-68
2022/05/23 04:35:20;;;;;;;6.28;2.80;;;24.30;52.60;;;;;;5091538;28;20390;-67
2022/05/23 04:37:51;;;;;;;8.48;2.78;;;24.30;52.60;;;;;;5090829;28;20417;-68
2022/05/23 04:40:21;;;;;;;6.47;2.95;;;24.30;52.50;;;;;;5091288;28;20850;-67
2022/05/23 04:42:47;;;;;;;8.23;2.92;;;24.30;52.50;;;;;;5089991;28;20491;-67
2022/05/23 04:45:14;;;;;;;7.03;2.70;;;24.30;52.40;;;;;;5094419;28;20383;-68
2022/05/23 04:50:25;;;;;;;4.70;2.43;;;24.30;52.50;;;;;;5102794;28;20388;-67
2022/05/23 04:52:52;;;;;;;6.38;2.65;;;24.30;52.40;;;;;;5111341;28;20404;-68
2022/05/23 04:55:19;;;;;;;6.45;2.60;;;24.30;52.60;;;;;;5110240;28;20384;-68
2022/05/23 04:57:45;;;;;;;5.20;2.90;;;24.30;52.50;;;;;;5111842;28;20404;-68
2022/05/23 05:00:14;;;;;;;9.32;3.20;;;24.30;52.30;;;;;;5102815;28;20556;-68
2022/05/23 05:02:40;;;;;;;6.60;2.83;;;24.30;52.60;;;;;;5096159;28;20449;-67
2022/05/23 05:05:08;;;;;;;4.72;2.80;;;24.30;52.40;;;;;;5092881;28;20398;-67
2022/05/23 05:07:33;;;;;;;7.38;2.78;;;24.30;52.30;;;;;;5094743;28;20461;-68
2022/05/23 05:09:59;;;;;;;8.57;2.93;;;24.30;52.30;;;;;;5093434;28;20519;-67
2022/05/23 05:12:25;;;;;;;6.88;2.80;;;24.30;52.30;;;;;;5094829;28;20385;-67
2022/05/23 05:14:51;;;;;;;4.40;2.63;;;24.30;52.20;;;;;;5094401;28;20401;-67
2022/05/23 05:17:16;;;;;;;5.20;2.42;;;24.30;52.20;;;;;;5094628;28;20386;-67
2022/05/23 05:19:42;;;;;;;7.35;2.83;;;24.30;52.30;;;;;;5093947;28;20801;-68
2022/05/23 05:22:08;;;;;;;4.43;2.50;;;24.30;52.20;;;;;;5094356;28;20382;-67
2022/05/23 05:24:34;;;;;;;6.85;2.90;;;24.30;52.40;;;;;;5093954;28;20433;-68
2022/05/23 05:27:01;;;;;;;6.63;3.07;;;24.20;52.40;;;;;;5093261;28;20465;-68
2022/05/23 05:29:27;;;;;;;7.13;2.90;;;24.30;52.60;;;;;;5094442;28;20452;-67
2022/05/23 05:32:06;;;;;;;6.43;3.00;;;24.30;52.90;;;;;;5093680;28;20461;-68
2022/05/23 05:34:48;;;;;;;7.32;3.40;;;24.30;53.90;;;;;;5094403;28;20378;-68
2022/05/23 05:37:24;;;;;;;5.43;3.40;;;24.30;53.70;;;;;;5093712;28;20390;-67
2022/05/23 05:39:53;;;;;;;8.88;3.08;;;24.40;54.10;;;;;;5085717;28;20386;-67
2022/05/23 05:42:30;;;;;;;6.28;3.10;;;24.30;54.10;;;;;;5097246;28;20787;-66
2022/05/23 05:45:04;;;;;;;10.27;2.80;;;24.30;53.80;;;;;;5093970;28;20871;-67
2022/05/23 05:47:34;;;;;;;8.18;3.17;;;24.30;52.90;;;;;;5091758;28;20405;-67
2022/05/23 05:50:05;;;;;;;9.15;2.83;;;24.40;52.60;;;;;;5092218;28;20390;-67
2022/05/23 05:52:32;;;;;;;9.70;2.90;;;24.40;53.90;;;;;;5093101;28;20497;-67
2022/05/23 05:54:58;;;;;;;8.02;3.10;;;24.30;53.10;;;;;;5091000;28;20413;-67
2022/05/23 05:57:25;;;;;;;8.23;2.72;;;24.30;52.30;;;;;;5082825;28;20459;-67
2022/05/23 05:59:51;;;;;;;6.75;2.70;;;24.30;52.80;;;;;;5093567;28;20901;-67
2022/05/23 06:02:17;;;;;;;5.25;2.40;;;24.40;52.40;;;;;;5093596;28;20394;-67
2022/05/23 06:04:42;;;;;;;6.75;2.50;;;24.30;52.30;;;;;;5093591;28;20390;-67
2022/05/23 06:12:36;;;;;;;4.97;2.35;;;24.30;52.40;;;;;;5093294;28;20381;-67
2022/05/23 06:15:03;;;;;;;5.80;2.57;;;24.30;52.40;;;;;;5093065;28;20387;-67
2022/05/23 06:17:28;;;;;;;3.55;2.40;;;24.30;52.10;;;;;;5091878;28;20421;-67
2022/05/23 06:19:54;;;;;;;4.73;2.50;;;24.30;52.40;;;;;;5092161;28;20774;-67
2022/05/23 06:22:21;;;;;;;5.68;2.85;;;24.30;52.30;;;;;;5091866;28;20746;-67
2022/05/23 06:24:49;;;;;;;5.15;2.55;;;24.30;52.40;;;;;;5093114;28;20931;-67
2022/05/23 06:27:15;;;;;;;4.00;2.47;;;24.30;52.40;;;;;;5093123;28;20382;-66
2022/05/23 06:29:40;;;;;;;5.30;2.63;;;24.30;52.30;;;;;;5093013;28;20391;-66
2022/05/23 06:32:06;;;;;;;4.70;2.22;;;24.30;52.40;;;;;;5091489;28;20864;-66
2022/05/23 06:34:32;;;;;;;6.10;2.50;;;24.30;52.30;;;;;;5091601;28;20397;-66
2022/05/23 06:36:59;;;;;;;4.88;2.38;;;24.30;52.40;;;;;;5091668;28;20390;-66
2022/05/23 06:39:25;;;;;;;4.40;2.20;;;24.30;52.40;;;;;;5090947;28;20421;-66
2022/05/23 06:41:51;;;;;;;4.45;2.60;;;24.30;52.40;;;;;;5091880;28;20394;-66
2022/05/23 06:44:17;;;;;;;5.35;2.30;;;24.30;53.00;;;;;;5092579;28;20397;-66
2022/05/23 06:46:43;;;;;;;4.10;2.23;;;24.30;52.90;;;;;;5092543;28;20382;-66
2022/05/23 06:49:09;;;;;;;4.22;2.20;;;24.30;52.30;;;;;;5092354;28;20479;-66
2022/05/23 06:51:36;;;;;;;3.43;2.30;;;24.30;52.10;;;;;;5090919;28;20433;-67
2022/05/23 06:54:02;;;;;;;4.25;2.60;;;24.30;52.20;;;;;;5090890;28;20398;-66
2022/05/23 06:56:30;;;;;;;3.22;2.20;;;24.30;52.30;;;;;;5092567;28;20858;-66
2022/05/23 06:58:56;;;;;;;4.75;2.53;;;24.30;52.10;;;;;;5094756;28;20490;-66
2022/05/23 07:01:22;;;;;;;4.10;2.50;;;24.30;52.30;;;;;;5094794;28;20893;-66
2022/05/23 07:03:48;;;;;;;4.80;2.70;;;24.30;52.00;;;;;;5092030;28;20412;-67
2022/05/23 07:14:27;;;;;;;3.70;2.47;;;24.30;52.10;;;;;;5071867;28;20437;-66
2022/05/23 07:16:54;;;;;;;3.33;2.30;;;24.30;51.80;;;;;;5071580;28;20376;-67
2022/05/23 07:19:20;;;;;;;3.30;2.20;;;24.30;52.00;;;;;;5072073;28;20498;-66
2022/05/23 07:21:45;;;;;;;4.18;2.30;;;24.30;52.00;;;;;;5070590;28;20487;-66
2022/05/23 07:24:11;;;;;;;2.50;2.30;;;24.30;52.00;;;;;;5071575;28;20402;-66
2022/05/23 07:26:37;;;;;;;3.38;2.35;;;24.30;52.00;;;;;;5071765;28;20478;-66
2022/05/23 07:29:04;;;;;;;3.92;2.17;;;24.30;51.90;;;;;;5071707;28;20487;-66
2022/05/23 07:31:30;;;;;;;3.45;2.17;;;24.30;52.00;;;;;;5071548;28;20874;-66
2022/05/23 07:33:56;;;;;;;4.60;2.10;;;24.30;52.00;;;;;;5071019;28;20391;-67
2022/05/23 07:36:22;;;;;;;3.15;2.30;;;24.30;52.00;;;;;;5071445;28;20384;-66
2022/05/23 07:38:48;;;;;;;4.00;2.30;;;24.30;52.00;;;;;;5071263;28;20469;-66
2022/05/23 07:41:14;;;;;;;3.33;2.40;;;24.30;52.00;;;;;;5071708;28;20403;-66
2022/05/23 07:43:41;;;;;;;4.05;2.30;;;24.30;52.00;;;;;;5071307;28;20419;-66
2022/05/23 07:46:13;;;;;;;3.10;2.30;;;24.30;52.10;;;;;;5071145;28;20863;-67
2022/05/23 07:48:45;;;;;;;2.65;2.22;;;24.30;52.00;;;;;;5070209;28;20387;-66
2022/05/23 07:51:12;;;;;;;4.00;2.60;;;24.30;52.00;;;;;;5069912;28;20419;-66
2022/05/23 08:01:51;;;;;;;2.67;2.20;;;24.30;51.90;;;;;;5071319;28;20402;-66
2022/05/23 08:04:17;;;;;;;2.97;2.50;;;24.30;52.00;;;;;;5071228;28;20387;-66
2022/05/23 08:06:43;;;;;;;3.13;2.40;;;24.30;51.90;;;;;;5071160;28;20388;-66
2022/05/23 08:09:09;;;;;;;2.75;2.10;;;24.30;51.90;;;;;;5071333;28;20721;-66
2022/05/23 08:11:38;;;;;;;3.42;2.50;;;24.30;52.00;;;;;;5071001;28;20391;-67
2022/05/23 08:14:04;;;;;;;3.22;2.13;;;24.30;52.00;;;;;;5070404;28;20387;-67
2022/05/23 08:16:30;;;;;;;2.73;2.10;;;24.30;51.90;;;;;;5070600;28;20383;-66
2022/05/23 08:18:58;;;;;;;3.20;2.30;;;24.30;52.00;;;;;;5069561;28;20415;-66
2022/05/23 08:21:24;;;;;;;3.63;2.40;;;24.30;51.90;;;;;;5069754;28;20403;-66
2022/05/23 08:23:51;;;;;;;3.75;2.22;;;24.30;52.00;;;;;;5070741;28;20390;-66
2022/05/23 08:26:16;;;;;;;2.93;2.37;;;24.30;52.00;;;;;;5070890;28;20388;-66
2022/05/23 08:28:42;;;;;;;3.55;2.40;;;24.30;52.00;;;;;;5070772;28;20395;-66
2022/05/23 08:31:08;;;;;;;3.10;2.00;;;24.30;51.90;;;;;;5070891;28;20407;-67
2022/05/23 08:33:33;;;;;;;2.67;2.22;;;24.30;51.90;;;;;;5074078;28;20972;-67
2022/05/23 08:35:59;;;;;;;3.23;2.10;;;24.30;52.00;;;;;;5074765;28;20461;-67
2022/05/23 08:38:25;;;;;;;3.13;2.17;;;24.30;52.00;;;;;;5074890;28;20890;-66
2022/05/23 08:41:13;;;;;;;2.73;2.30;;;24.30;52.00;;;;;;5074913;28;20419;-66
2022/05/23 08:43:56;;;;;;;3.15;2.17;;;24.30;52.00;;;;;;5074061;28;20966;-66
2022/05/23 08:46:36;;;;;;;4.40;2.17;;;24.20;51.90;;;;;;5074777;28;20388;-66
2022/05/23 08:49:25;;;;;;;2.63;2.20;;;24.20;52.00;;;;;;5073569;28;20395;-67
2022/05/23 08:52:08;;;;;;;3.63;2.38;;;24.20;52.00;;;;;;5074239;28;20415;-67
2022/05/23 08:54:42;;;;;;;3.40;2.20;;;24.30;52.10;;;;;;5074500;28;20399;-67
2022/05/23 08:57:27;;;;;;;2.63;2.08;;;24.30;52.00;;;;;;5073309;28;20396;-67
2022/05/23 08:59:57;;;;;;;3.22;2.50;;;24.30;52.10;;;;;;5073124;28;20448;-67
2022/05/23 09:02:41;;;;;;;2.95;2.40;;;24.30;52.00;;;;;;5074311;28;20379;-67
2022/05/23 09:05:19;;;;;;;3.33;2.25;;;24.20;52.00;;;;;;5074099;28;20961;-69
2022/05/23 09:07:51;;;;;;;3.22;2.30;;;24.20;52.10;;;;;;5073375;28;20400;-67
2022/05/23 09:10:43;;;;;;;3.22;2.20;;;24.30;52.40;;;;;;5074421;28;20392;-67
2022/05/23 09:13:12;;;;;;;3.03;2.20;;;24.30;52.30;;;;;;5074342;28;20440;-66
2022/05/23 09:15:37;;;;;;;2.40;1.98;;;24.30;52.30;;;;;;5074445;28;20407;-67
2022/05/23 09:18:13;;;;;;;2.50;2.00;;;24.30;52.60;;;;;;5072512;28;20423;-67
2022/05/23 09:20:48;;;;;;;3.03;2.28;;;24.30;52.10;;;;;;5074370;28;20375;-67
2022/05/23 09:23:34;;;;;;;3.03;2.10;;;24.30;52.30;;;;;;5074358;28;20423;-67
2022/05/23 09:26:16;;;;;;;2.78;2.05;;;24.30;52.10;;;;;;5073885;28;20380;-67
2022/05/23 09:28:42;;;;;;;2.80;2.20;;;24.30;52.10;;;;;;5072979;28;20400;-67
2022/05/23 09:31:10;;;;;;;2.92;2.22;;;24.30;52.00;;;;;;5087353;28;20382;-67
2022/05/23 09:33:45;;;;;;;3.58;2.10;;;24.30;52.30;;;;;;5093000;28;20432;-67
2022/05/23 09:36:34;;;;;;;2.65;2.10;;;24.30;52.10;;;;;;5092328;28;20374;-67
2022/05/23 09:39:05;;;;;;;2.60;2.10;;;24.30;52.20;;;;;;5090905;28;20422;-67
2022/05/23 09:49:52;;;;;;;2.50;2.00;;;24.30;52.10;;;;;;5090524;28;20407;-67
2022/05/23 09:52:27;;;;;;;2.65;2.00;;;24.40;52.10;;;;;;5092984;28;20820;-67
2022/05/23 09:55:05;;;;;;;2.50;2.10;;;24.40;52.00;;;;;;5089222;28;20896;-66
2022/05/23 09:57:40;;;;;;;3.03;2.40;;;24.40;52.20;;;;;;5093193;28;20435;-66
2022/05/23 10:00:08;;;;;;;2.90;2.22;;;24.40;52.10;;;;;;5092174;28;20394;-67
2022/05/23 10:02:34;;;;;;;2.55;2.22;;;24.40;52.10;;;;;;5092470;28;20418;-67
2022/05/23 10:04:59;;;;;;;2.90;2.37;;;24.40;52.10;;;;;;5093738;28;20510;-68
2022/05/23 10:07:29;;;;;;;3.30;2.20;;;24.30;52.00;;;;;;5093978;28;20382;-67
2022/05/23 10:09:58;;;;;;;2.80;2.30;;;24.40;52.10;;;;;;5093650;28;20451;-68
2022/05/23 10:12:24;;;;;;;172.65;29.88;;;24.30;52.00;;;;;;5093910;28;20475;-67
2022/05/23 10:15:00;;;;;;;459.92;109.82;;;24.40;52.90;;;;;;5093298;28;20910;-68
2022/05/23 10:17:57;;;;;;;196.32;97.80;;;24.40;53.60;;;;;;5100884;28;20399;-67
2022/05/23 10:20:23;;;;;;;256.10;82.05;;;24.40;53.90;;;;;;5071521;28;20925;-67
2022/05/23 10:22:55;;;;;;;206.20;73.57;;;24.50;54.20;;;;;;5101983;28;20430;-67
2022/05/23 10:25:20;;;;;;;174.25;59.38;;;24.50;54.60;;;;;;5107588;28;20380;-67
2022/05/23 10:27:57;;;;;;;143.95;50.35;;;24.50;54.60;;;;;;5108566;28;20401;-68
2022/05/23 10:30:28;;;;;;;114.15;43.75;;;24.50;55.00;;;;;;5092644;28;20390;-68
2022/05/23 10:32:59;;;;;;;92.03;32.13;;;24.50;54.70;;;;;;5092654;28;20400;-68
2022/05/23 10:35:36;;;;;;;84.00;29.53;;;24.50;53.60;;;;;;5092890;28;20425;-67
2022/05/23 10:44:06;;;;;;;52.05;19.95;;;24.50;52.50;;;;;;5092754;28;20381;-68
2022/05/23 10:46:35;;;;;;;49.03;18.52;;;24.50;52.40;;;;;;5051203;28;20389;-67
2022/05/23 10:49:21;;;;;;;42.30;16.88;;;24.50;52.40;;;;;;5092356;28;20381;-68
2022/05/23 10:52:18;;;;;;;40.70;16.52;;;24.50;52.30;;;;;;5092272;28;20936;-67
2022/05/23 10:54:49;;;;;;;39.30;15.15;;;24.50;52.30;;;;;;5092514;28;20375;-67
2022/05/23 10:57:36;;;;;;;35.83;14.05;;;24.50;53.10;;;;;;5092345;28;20381;-68
2022/05/23 11:00:24;;;;;;;40.40;16.48;;;24.60;52.50;;;;;;5092140;28;20386;-67
2022/05/23 11:03:20;;;;;;;34.25;13.70;;;24.70;53.10;;;;;;5103334;28;20475;-68
2022/05/23 11:06:01;;;;;;;33.13;11.82;;;24.60;53.10;;;;;;5096242;28;21597;-68
2022/05/23 11:08:46;;;;;;;29.83;11.25;;;24.60;52.70;;;;;;5090640;28;20504;-67
2022/05/23 11:11:44;;;;;;;28.80;10.43;;;24.60;52.60;;;;;;5095774;28;20390;-67
2022/05/23 11:14:34;;;;;;;24.35;9.32;;;24.60;52.50;;;;;;5101440;28;20885;-67
2022/05/23 11:17:23;;;;;;;23.23;9.77;;;24.60;52.80;;;;;;5101380;28;20403;-67
2022/05/23 11:20:07;;;;;;;22.15;9.43;;;24.60;52.70;;;;;;5095011;28;20416;-67
2022/05/23 11:22:36;;;;;;;21.88;9.23;;;24.60;52.50;;;;;;5089541;28;20389;-67
2022/05/23 11:25:23;;;;;;;20.10;8.70;;;24.60;52.60;;;;;;5091740;28;20417;-67
2022/05/23 11:33:50;;;;;;;15.45;7.15;;;24.60;52.10;;;;;;5076040;28;20437;-67
2022/05/23 11:36:28;;;;;;;16.98;6.72;;;24.60;52.10;;;;;;5082613;28;20416;-67
2022/05/23 11:38:54;;;;;;;14.43;6.43;;;24.60;51.90;;;;;;5083447;28;20494;-68
2022/05/23 11:41:38;;;;;;;12.13;5.83;;;24.60;51.70;;;;;;5073719;28;20387;-67
2022/05/23 11:44:33;;;;;;;13.32;6.03;;;24.60;51.70;;;;;;5091469;28;20893;-67
2022/05/23 11:47:18;;;;;;;13.20;6.15;;;24.60;51.60;;;;;;5091693;28;20851;-67
2022/05/23 11:49:48;;;;;;;12.07;5.85;;;24.60;51.90;;;;;;5085635;28;20866;-67
2022/05/23 11:52:51;;;;;;;12.18;5.53;;;24.60;51.70;;;;;;5082667;28;20480;-68
2022/05/23 11:55:52;;;;;;;11.93;5.40;;;24.60;51.70;;;;;;5085529;28;20451;-68
2022/05/23 11:58:22;;;;;;;11.57;5.60;;;24.60;51.70;;;;;;5089400;28;20409;-67
2022/05/23 12:01:14;;;;;;;11.52;5.00;;;24.60;51.70;;;;;;5087166;28;20461;-67
2022/05/23 12:03:55;;;;;;;10.32;5.10;;;24.60;51.70;;;;;;5083769;28;20406;-68
2022/05/23 12:06:24;;;;;;;10.07;5.43;;;24.60;51.70;;;;;;5085534;28;20473;-68
2022/05/23 12:09:01;;;;;;;10.27;5.10;;;24.60;51.70;;;;;;5092341;28;20410;-67
2022/05/23 12:11:32;;;;;;;9.25;4.97;;;24.60;51.70;;;;;;5088444;28;20953;-67
2022/05/23 12:14:19;;;;;;;11.18;4.90;;;24.60;51.60;;;;;;5089601;28;20893;-67
2022/05/23 12:17:05;;;;;;;8.40;4.70;;;24.60;51.60;;;;;;5089334;28;20443;-68
2022/05/23 12:19:40;;;;;;;7.25;4.50;;;24.60;51.60;;;;;;5091033;28;20463;-68
2022/05/23 12:22:21;;;;;;;7.95;4.32;;;24.60;51.60;;;;;;5090750;28;20870;-68
2022/05/23 12:24:57;;;;;;;9.45;4.47;;;24.60;51.60;;;;;;5090972;28;20467;-67
2022/05/23 12:27:34;;;;;;;6.95;4.00;;;24.60;51.60;;;;;;5090802;28;20455;-67
2022/05/23 12:30:21;;;;;;;8.60;4.57;;;24.60;51.60;;;;;;5087558;28;20408;-67
2022/05/23 12:32:50;;;;;;;9.10;4.45;;;24.70;51.60;;;;;;5069300;28;20442;-68
2022/05/23 12:35:19;;;;;;;7.80;4.20;;;24.60;51.50;;;;;;5074098;28;20865;-68
2022/05/23 12:38:08;;;;;;;7.82;4.50;;;24.60;51.50;;;;;;5078119;28;20833;-67
2022/05/23 12:40:47;;;;;;;7.38;4.30;;;24.60;51.50;;;;;;5073378;28;20391;-67
2022/05/23 12:43:57;;;;;;;8.20;4.05;;;24.70;51.50;;;;;;5074274;28;20426;-67
2022/05/23 12:46:35;;;;;;;7.22;4.30;;;24.70;51.50;;;;;;5047996;28;20988;-67
2022/05/23 12:49:40;;;;;;;8.57;4.05;;;24.60;51.40;;;;;;5068306;28;20388;-67
2022/05/23 12:52:31;;;;;;;5.72;3.80;;;24.70;51.50;;;;;;5086945;28;20468;-67
2022/05/23 12:55:23;;;;;;;6.78;4.00;;;24.70;51.50;;;;;;5070936;28;20403;-67
2022/05/23 12:57:56;;;;;;;9.68;4.75;;;24.70;51.50;;;;;;5072204;28;20446;-68
2022/05/23 13:00:24;;;;;;;6.90;4.15;;;24.70;51.50;;;;;;5089814;28;20401;-67
2022/05/23 13:03:02;;;;;;;7.22;4.18;;;24.70;51.50;;;;;;5092348;28;20482;-68
2022/05/23 13:05:34;;;;;;;6.57;3.90;;;24.70;51.50;;;;;;5078425;28;20949;-67
2022/05/23 13:08:06;;;;;;;6.18;3.80;;;24.70;51.50;;;;;;5085160;28;20399;-68
2022/05/23 13:10:39;;;;;;;6.30;3.78;;;24.70;51.50;;;;;;5079270;28;20396;-67
2022/05/23 13:13:16;;;;;;;7.28;3.72;;;24.70;51.40;;;;;;5070737;28;20422;-67
2022/05/23 13:15:42;;;;;;;6.45;3.83;;;24.70;51.40;;;;;;5069141;28;20904;-67
2022/05/23 13:23:39;;;;;;;6.45;3.47;;;24.70;51.30;;;;;;5085919;28;20478;-67
2022/05/23 13:26:07;;;;;;;8.18;4.30;;;24.70;51.60;;;;;;5075485;28;20513;-67
2022/05/23 13:28:42;;;;;;;5.70;3.97;;;24.70;52.00;;;;;;5073973;28;20396;-67
2022/05/23 13:31:33;;;;;;;6.68;4.10;;;24.80;52.30;;;;;;5074071;28;20384;-67
2022/05/23 13:33:59;;;;;;;7.13;3.88;;;24.80;52.60;;;;;;5091498;28;20455;-67
2022/05/23 13:36:42;;;;;;;6.18;3.90;;;24.80;52.60;;;;;;5093652;28;20386;-67
2022/05/23 13:39:17;;;;;;;7.05;3.90;;;24.80;52.30;;;;;;5092785;28;20428;-67
2022/05/23 13:41:44;;;;;;;6.65;3.50;;;24.80;52.00;;;;;;5093863;28;20379;-67
2022/05/23 13:44:35;;;;;;;7.25;4.10;;;24.80;52.20;;;;;;5090711;28;20398;-67
2022/05/23 13:47:08;;;;;;;6.70;3.60;;;24.80;52.20;;;;;;5093951;28;20374;-68
2022/05/23 13:49:45;;;;;;;5.28;3.30;;;24.80;51.90;;;;;;5092970;28;20381;-67
2022/05/23 13:52:16;;;;;;;4.87;3.30;;;24.80;52.10;;;;;;5084447;28;20445;-67
2022/05/23 13:54:50;;;;;;;5.00;3.50;;;24.80;51.80;;;;;;5090069;28;20450;-66
2022/05/23 13:57:27;;;;;;;5.13;3.33;;;24.80;51.80;;;;;;5095200;28;20382;-66
2022/05/23 14:00:03;;;;;;;4.68;3.10;;;24.80;51.80;;;;;;5085251;28;20419;-66
2022/05/23 14:02:39;;;;;;;5.20;3.28;;;24.80;52.00;;;;;;5081279;28;20390;-67
2022/05/23 14:05:06;;;;;;;5.53;3.22;;;24.80;51.90;;;;;;5084705;28;20545;-67
2022/05/23 14:07:36;;;;;;;5.10;3.25;;;24.80;51.90;;;;;;5087538;28;20386;-67
2022/05/23 14:10:03;;;;;;;4.13;3.20;;;24.80;51.90;;;;;;5093559;28;20400;-66